EGOP

Pembrey Sands Airport

Pembrey Sands, United Kingdom
METAR EGOP 172050Z AUTO 29009KT 4900 // SCT140/// BKN180/// 09/09 Q1022
Observed Flight Rules
Dec-17 @ 20:50 UTC (42 minutes ago) Marginal Visual Flight Rules
Wind Visibility Clouds
290° at 9 knots 4,892 meters
  • Scattered at 14,000' AGL
  • Broken at 18,000' AGL
Temperatures Readings
Current 9°C / 48°F
Dewpoint 9°C / 48°F
Humidity 100%
Altimeter 30.18" Hg
Pressure 1022 hPa
Elevation 6
METAR EGOP 172050Z AUTO 29009KT 4900 // SCT140/// BKN180/// 09/09 Q1022
Observed Flight Rules
Dec-17 @ 20:50 UTC
(42 minutes ago)
MVFR
Wind Visibility
290° at 9 knots 4,892 meters
Clouds
  • Scattered at 14,000' AGL
  • Broken at 18,000' AGL
Temperature Dewpoint
9°C / 48°F 9°C / 48°F
Humidity Altimeter Pressure
100% 30.18" Hg 1022 hPa